sensor_id;sensor_type;location;lat;lon;timestamp;P1;durP1;ratioP1;P2;durP2;ratioP2
11537;SDS011;50159;49.426;11.182;2022-09-17T00:01:21;1.67;;;1.67;;
11537;SDS011;50159;49.426;11.182;2022-09-17T00:03:50;1.80;;;1.70;;
11537;SDS011;50159;49.426;11.182;2022-09-17T00:06:25;1.77;;;1.70;;
11537;SDS011;50159;49.426;11.182;2022-09-17T00:08:53;1.73;;;1.63;;
11537;SDS011;50159;49.426;11.182;2022-09-17T00:11:21;1.57;;;1.57;;
11537;SDS011;50159;49.426;11.182;2022-09-17T00:13:52;2.10;;;1.90;;
11537;SDS011;50159;49.426;11.182;2022-09-17T00:16:24;1.93;;;1.70;;
11537;SDS011;50159;49.426;11.182;2022-09-17T00:19:01;1.63;;;1.57;;
11537;SDS011;50159;49.426;11.182;2022-09-17T00:21:31;2.40;;;1.50;;
11537;SDS011;50159;49.426;11.182;2022-09-17T00:23:59;1.90;;;1.80;;
11537;SDS011;50159;49.426;11.182;2022-09-17T00:26:28;1.73;;;1.67;;
11537;SDS011;50159;49.426;11.182;2022-09-17T00:28:58;2.20;;;1.60;;
11537;SDS011;50159;49.426;11.182;2022-09-17T00:31:26;4.30;;;1.60;;
11537;SDS011;50159;49.426;11.182;2022-09-17T00:33:55;2.43;;;1.40;;
11537;SDS011;50159;49.426;11.182;2022-09-17T00:36:24;1.40;;;1.40;;
11537;SDS011;50159;49.426;11.182;2022-09-17T00:38:52;1.40;;;1.40;;
11537;SDS011;50159;49.426;11.182;2022-09-17T00:41:22;1.40;;;1.40;;
11537;SDS011;50159;49.426;11.182;2022-09-17T00:43:56;2.10;;;1.90;;
11537;SDS011;50159;49.426;11.182;2022-09-17T00:46:34;1.70;;;1.70;;
11537;SDS011;50159;49.426;11.182;2022-09-17T00:49:13;1.90;;;1.80;;
11537;SDS011;50159;49.426;11.182;2022-09-17T00:51:56;1.43;;;1.43;;
11537;SDS011;50159;49.426;11.182;2022-09-17T00:54:41;2.40;;;1.80;;
11537;SDS011;50159;49.426;11.182;2022-09-17T00:57:17;1.80;;;1.70;;
11537;SDS011;50159;49.426;11.182;2022-09-17T00:59:44;2.00;;;2.00;;
11537;SDS011;50159;49.426;11.182;2022-09-17T01:02:11;2.10;;;2.00;;
11537;SDS011;50159;49.426;11.182;2022-09-17T01:04:38;2.10;;;2.00;;
11537;SDS011;50159;49.426;11.182;2022-09-17T01:07:11;2.33;;;2.13;;
11537;SDS011;50159;49.426;11.182;2022-09-17T01:19:33;2.20;;;2.10;;
11537;SDS011;50159;49.426;11.182;2022-09-17T01:25:47;3.87;;;2.73;;
11537;SDS011;50159;49.426;11.182;2022-09-17T01:28:40;2.73;;;2.53;;
11537;SDS011;50159;49.426;11.182;2022-09-17T01:34:07;3.00;;;2.90;;
11537;SDS011;50159;49.426;11.182;2022-09-17T01:36:57;2.97;;;2.77;;
11537;SDS011;50159;49.426;11.182;2022-09-17T01:50:51;2.80;;;2.63;;
11537;SDS011;50159;49.426;11.182;2022-09-17T01:53:25;2.87;;;2.67;;
11537;SDS011;50159;49.426;11.182;2022-09-17T01:56:01;2.90;;;2.73;;
11537;SDS011;50159;49.426;11.182;2022-09-17T01:58:32;3.20;;;2.90;;
11537;SDS011;50159;49.426;11.182;2022-09-17T02:01:07;3.07;;;2.97;;
11537;SDS011;50159;49.426;11.182;2022-09-17T02:03:40;3.13;;;2.90;;
11537;SDS011;50159;49.426;11.182;2022-09-17T02:06:15;2.93;;;2.73;;
11537;SDS011;50159;49.426;11.182;2022-09-17T02:11:52;3.47;;;3.10;;
11537;SDS011;50159;49.426;11.182;2022-09-17T02:14:26;2.67;;;2.57;;
11537;SDS011;50159;49.426;11.182;2022-09-17T02:17:06;3.13;;;3.00;;
11537;SDS011;50159;49.426;11.182;2022-09-17T02:19:41;3.53;;;3.20;;
11537;SDS011;50159;49.426;11.182;2022-09-17T02:22:19;3.03;;;2.83;;
11537;SDS011;50159;49.426;11.182;2022-09-17T02:30:28;3.00;;;2.90;;
11537;SDS011;50159;49.426;11.182;2022-09-17T02:32:57;3.70;;;2.87;;
11537;SDS011;50159;49.426;11.182;2022-09-17T02:35:29;3.77;;;2.90;;
11537;SDS011;50159;49.426;11.182;2022-09-17T02:37:57;3.37;;;3.03;;
11537;SDS011;50159;49.426;11.182;2022-09-17T02:40:26;3.10;;;2.90;;
11537;SDS011;50159;49.426;11.182;2022-09-17T02:49:04;2.90;;;2.70;;
11537;SDS011;50159;49.426;11.182;2022-09-17T02:52:05;4.23;;;3.10;;
11537;SDS011;50159;49.426;11.182;2022-09-17T02:58:24;4.03;;;3.30;;
11537;SDS011;50159;49.426;11.182;2022-09-17T03:00:52;3.33;;;2.77;;
11537;SDS011;50159;49.426;11.182;2022-09-17T03:03:29;3.23;;;3.03;;
11537;SDS011;50159;49.426;11.182;2022-09-17T03:06:03;10.63;;;3.53;;
11537;SDS011;50159;49.426;11.182;2022-09-17T03:08:31;6.00;;;3.23;;
11537;SDS011;50159;49.426;11.182;2022-09-17T03:11:03;3.50;;;3.20;;
11537;SDS011;50159;49.426;11.182;2022-09-17T03:13:30;4.53;;;2.80;;
11537;SDS011;50159;49.426;11.182;2022-09-17T03:15:57;3.23;;;2.90;;
11537;SDS011;50159;49.426;11.182;2022-09-17T03:18:24;3.43;;;2.50;;
11537;SDS011;50159;49.426;11.182;2022-09-17T03:20:51;6.50;;;2.70;;
11537;SDS011;50159;49.426;11.182;2022-09-17T03:23:17;3.23;;;2.83;;
11537;SDS011;50159;49.426;11.182;2022-09-17T03:25:45;5.17;;;2.90;;
11537;SDS011;50159;49.426;11.182;2022-09-17T03:28:13;9.47;;;3.23;;
11537;SDS011;50159;49.426;11.182;2022-09-17T03:30:39;5.10;;;2.93;;
11537;SDS011;50159;49.426;11.182;2022-09-17T03:33:08;2.53;;;2.43;;
11537;SDS011;50159;49.426;11.182;2022-09-17T03:35:35;4.90;;;3.07;;
11537;SDS011;50159;49.426;11.182;2022-09-17T03:38:02;2.60;;;2.50;;
11537;SDS011;50159;49.426;11.182;2022-09-17T03:40:29;4.47;;;2.67;;
11537;SDS011;50159;49.426;11.182;2022-09-17T03:42:56;4.93;;;2.77;;
11537;SDS011;50159;49.426;11.182;2022-09-17T03:45:23;5.03;;;3.10;;
11537;SDS011;50159;49.426;11.182;2022-09-17T03:47:49;4.90;;;3.10;;
11537;SDS011;50159;49.426;11.182;2022-09-17T03:50:16;6.37;;;3.00;;
11537;SDS011;50159;49.426;11.182;2022-09-17T03:52:43;3.43;;;3.03;;
11537;SDS011;50159;49.426;11.182;2022-09-17T03:55:10;3.47;;;3.17;;
11537;SDS011;50159;49.426;11.182;2022-09-17T03:57:36;3.10;;;2.87;;
11537;SDS011;50159;49.426;11.182;2022-09-17T04:00:03;4.60;;;2.60;;
11537;SDS011;50159;49.426;11.182;2022-09-17T04:02:32;9.50;;;2.93;;
11537;SDS011;50159;49.426;11.182;2022-09-17T04:04:59;3.73;;;2.67;;
11537;SDS011;50159;49.426;11.182;2022-09-17T04:07:26;4.23;;;2.27;;
11537;SDS011;50159;49.426;11.182;2022-09-17T04:09:52;4.57;;;2.97;;
11537;SDS011;50159;49.426;11.182;2022-09-17T04:12:19;3.13;;;2.70;;
11537;SDS011;50159;49.426;11.182;2022-09-17T04:14:46;4.17;;;2.80;;
11537;SDS011;50159;49.426;11.182;2022-09-17T04:17:13;2.47;;;2.37;;
11537;SDS011;50159;49.426;11.182;2022-09-17T04:19:43;2.77;;;2.47;;
11537;SDS011;50159;49.426;11.182;2022-09-17T04:22:10;5.90;;;2.40;;
11537;SDS011;50159;49.426;11.182;2022-09-17T04:24:37;4.20;;;2.20;;
11537;SDS011;50159;49.426;11.182;2022-09-17T04:27:04;3.20;;;3.00;;
11537;SDS011;50159;49.426;11.182;2022-09-17T04:29:30;2.43;;;2.20;;
11537;SDS011;50159;49.426;11.182;2022-09-17T04:31:57;3.37;;;2.77;;
11537;SDS011;50159;49.426;11.182;2022-09-17T04:34:24;3.13;;;2.30;;
11537;SDS011;50159;49.426;11.182;2022-09-17T04:36:51;4.87;;;2.27;;
11537;SDS011;50159;49.426;11.182;2022-09-17T04:39:18;3.37;;;3.03;;
11537;SDS011;50159;49.426;11.182;2022-09-17T04:41:44;5.20;;;2.43;;
11537;SDS011;50159;49.426;11.182;2022-09-17T04:44:12;3.63;;;2.20;;
11537;SDS011;50159;49.426;11.182;2022-09-17T04:46:39;2.80;;;2.60;;
11537;SDS011;50159;49.426;11.182;2022-09-17T04:49:05;3.03;;;2.23;;
11537;SDS011;50159;49.426;11.182;2022-09-17T04:51:33;4.93;;;2.40;;
11537;SDS011;50159;49.426;11.182;2022-09-17T04:54:00;3.57;;;2.47;;
11537;SDS011;50159;49.426;11.182;2022-09-17T04:56:27;2.20;;;2.10;;
11537;SDS011;50159;49.426;11.182;2022-09-17T04:58:54;5.13;;;3.00;;
11537;SDS011;50159;49.426;11.182;2022-09-17T05:01:20;3.60;;;2.40;;
11537;SDS011;50159;49.426;11.182;2022-09-17T05:03:47;2.53;;;2.33;;
11537;SDS011;50159;49.426;11.182;2022-09-17T05:06:15;3.83;;;2.60;;
11537;SDS011;50159;49.426;11.182;2022-09-17T05:08:41;5.20;;;2.57;;
11537;SDS011;50159;49.426;11.182;2022-09-17T05:11:08;5.23;;;2.63;;
11537;SDS011;50159;49.426;11.182;2022-09-17T05:13:35;2.77;;;2.57;;
11537;SDS011;50159;49.426;11.182;2022-09-17T05:16:01;5.63;;;2.60;;
11537;SDS011;50159;49.426;11.182;2022-09-17T05:18:28;2.43;;;2.33;;
11537;SDS011;50159;49.426;11.182;2022-09-17T05:20:55;4.00;;;2.73;;
11537;SDS011;50159;49.426;11.182;2022-09-17T05:23:22;7.70;;;2.70;;
11537;SDS011;50159;49.426;11.182;2022-09-17T05:25:49;5.10;;;2.93;;
11537;SDS011;50159;49.426;11.182;2022-09-17T05:28:15;4.50;;;2.43;;
11537;SDS011;50159;49.426;11.182;2022-09-17T05:30:42;2.20;;;2.00;;
11537;SDS011;50159;49.426;11.182;2022-09-17T05:33:09;3.40;;;2.20;;
11537;SDS011;50159;49.426;11.182;2022-09-17T05:48:36;3.33;;;1.90;;
11537;SDS011;50159;49.426;11.182;2022-09-17T05:51:03;1.80;;;1.80;;
11537;SDS011;50159;49.426;11.182;2022-09-17T05:53:30;3.13;;;2.23;;
11537;SDS011;50159;49.426;11.182;2022-09-17T05:55:57;3.00;;;2.17;;
11537;SDS011;50159;49.426;11.182;2022-09-17T05:58:24;4.00;;;2.20;;
11537;SDS011;50159;49.426;11.182;2022-09-17T06:00:52;3.20;;;2.00;;
11537;SDS011;50159;49.426;11.182;2022-09-17T06:03:19;3.23;;;1.83;;
11537;SDS011;50159;49.426;11.182;2022-09-17T06:05:51;1.73;;;1.60;;
11537;SDS011;50159;49.426;11.182;2022-09-17T06:08:20;2.13;;;1.93;;
11537;SDS011;50159;49.426;11.182;2022-09-17T06:10:48;2.70;;;1.77;;
11537;SDS011;50159;49.426;11.182;2022-09-17T06:13:16;1.80;;;1.70;;
11537;SDS011;50159;49.426;11.182;2022-09-17T06:15:50;1.33;;;1.33;;
11537;SDS011;50159;49.426;11.182;2022-09-17T06:18:19;3.70;;;1.80;;
11537;SDS011;50159;49.426;11.182;2022-09-17T06:20:52;1.53;;;1.40;;
11537;SDS011;50159;49.426;11.182;2022-09-17T06:23:24;1.73;;;1.63;;
11537;SDS011;50159;49.426;11.182;2022-09-17T06:25:56;1.53;;;1.53;;
11537;SDS011;50159;49.426;11.182;2022-09-17T06:28:25;1.43;;;1.43;;
11537;SDS011;50159;49.426;11.182;2022-09-17T06:30:53;1.43;;;1.43;;
11537;SDS011;50159;49.426;11.182;2022-09-17T06:33:22;1.40;;;1.40;;
11537;SDS011;50159;49.426;11.182;2022-09-17T06:35:54;2.57;;;1.60;;
11537;SDS011;50159;49.426;11.182;2022-09-17T06:38:28;1.30;;;1.30;;
11537;SDS011;50159;49.426;11.182;2022-09-17T06:40:57;3.40;;;1.70;;
11537;SDS011;50159;49.426;11.182;2022-09-17T06:43:24;1.47;;;1.47;;
11537;SDS011;50159;49.426;11.182;2022-09-17T06:48:19;1.60;;;1.47;;
11537;SDS011;50159;49.426;11.182;2022-09-17T06:50:47;1.40;;;1.40;;
11537;SDS011;50159;49.426;11.182;2022-09-17T06:53:15;1.50;;;1.50;;
11537;SDS011;50159;49.426;11.182;2022-09-17T06:55:42;2.77;;;1.57;;
11537;SDS011;50159;49.426;11.182;2022-09-17T06:58:09;3.40;;;1.60;;
11537;SDS011;50159;49.426;11.182;2022-09-17T07:00:36;1.57;;;1.53;;
11537;SDS011;50159;49.426;11.182;2022-09-17T07:03:03;2.00;;;1.57;;
11537;SDS011;50159;49.426;11.182;2022-09-17T07:05:30;1.60;;;1.30;;
11537;SDS011;50159;49.426;11.182;2022-09-17T07:07:59;3.03;;;1.70;;
11537;SDS011;50159;49.426;11.182;2022-09-17T07:10:30;1.93;;;1.73;;
11537;SDS011;50159;49.426;11.182;2022-09-17T07:12:57;1.77;;;1.67;;
11537;SDS011;50159;49.426;11.182;2022-09-17T07:15:24;2.83;;;1.50;;
11537;SDS011;50159;49.426;11.182;2022-09-17T07:17:51;1.40;;;1.40;;
11537;SDS011;50159;49.426;11.182;2022-09-17T07:20:18;1.40;;;1.40;;
11537;SDS011;50159;49.426;11.182;2022-09-17T07:22:45;2.23;;;1.70;;
11537;SDS011;50159;49.426;11.182;2022-09-17T07:25:21;1.70;;;1.70;;
11537;SDS011;50159;49.426;11.182;2022-09-17T07:27:51;1.80;;;1.70;;
11537;SDS011;50159;49.426;11.182;2022-09-17T07:30:18;1.70;;;1.70;;
11537;SDS011;50159;49.426;11.182;2022-09-17T07:32:46;1.80;;;1.70;;
11537;SDS011;50159;49.426;11.182;2022-09-17T07:35:13;2.03;;;1.93;;
11537;SDS011;50159;49.426;11.182;2022-09-17T07:37:39;2.40;;;2.10;;
11537;SDS011;50159;49.426;11.182;2022-09-17T07:40:06;2.13;;;2.03;;
11537;SDS011;50159;49.426;11.182;2022-09-17T07:42:34;1.80;;;1.80;;
11537;SDS011;50159;49.426;11.182;2022-09-17T07:45:01;2.00;;;1.80;;
11537;SDS011;50159;49.426;11.182;2022-09-17T07:47:27;3.37;;;1.90;;
11537;SDS011;50159;49.426;11.182;2022-09-17T07:49:54;2.00;;;1.90;;
11537;SDS011;50159;49.426;11.182;2022-09-17T07:52:21;3.30;;;2.20;;
11537;SDS011;50159;49.426;11.182;2022-09-17T07:54:48;2.67;;;2.27;;
11537;SDS011;50159;49.426;11.182;2022-09-17T07:57:14;4.00;;;2.30;;
11537;SDS011;50159;49.426;11.182;2022-09-17T07:59:41;2.03;;;1.93;;
11537;SDS011;50159;49.426;11.182;2022-09-17T08:02:10;2.47;;;2.33;;
11537;SDS011;50159;49.426;11.182;2022-09-17T08:04:40;3.23;;;2.87;;
11537;SDS011;50159;49.426;11.182;2022-09-17T08:07:11;4.73;;;2.50;;
11537;SDS011;50159;49.426;11.182;2022-09-17T08:09:38;2.80;;;2.40;;
11537;SDS011;50159;49.426;11.182;2022-09-17T08:12:05;2.70;;;2.40;;
11537;SDS011;50159;49.426;11.182;2022-09-17T08:14:32;2.67;;;2.50;;
11537;SDS011;50159;49.426;11.182;2022-09-17T08:16:59;5.03;;;2.33;;
11537;SDS011;50159;49.426;11.182;2022-09-17T08:19:26;3.17;;;2.30;;
11537;SDS011;50159;49.426;11.182;2022-09-17T08:21:57;8.47;;;2.80;;
11537;SDS011;50159;49.426;11.182;2022-09-17T08:24:23;2.80;;;2.60;;
11537;SDS011;50159;49.426;11.182;2022-09-17T08:26:50;3.03;;;2.73;;
11537;SDS011;50159;49.426;11.182;2022-09-17T08:29:17;5.40;;;3.00;;
11537;SDS011;50159;49.426;11.182;2022-09-17T08:31:44;2.93;;;2.73;;
11537;SDS011;50159;49.426;11.182;2022-09-17T08:34:11;4.30;;;2.73;;
11537;SDS011;50159;49.426;11.182;2022-09-17T08:36:38;5.67;;;2.67;;
11537;SDS011;50159;49.426;11.182;2022-09-17T08:39:05;3.77;;;3.40;;
11537;SDS011;50159;49.426;11.182;2022-09-17T08:44:29;3.13;;;2.80;;
11537;SDS011;50159;49.426;11.182;2022-09-17T08:47:23;2.77;;;2.47;;
11537;SDS011;50159;49.426;11.182;2022-09-17T08:49:59;2.47;;;2.37;;
11537;SDS011;50159;49.426;11.182;2022-09-17T08:58:58;3.80;;;2.67;;
11537;SDS011;50159;49.426;11.182;2022-09-17T09:04:36;3.33;;;2.80;;
11537;SDS011;50159;49.426;11.182;2022-09-17T09:07:33;3.10;;;2.93;;
11537;SDS011;50159;49.426;11.182;2022-09-17T09:10:15;5.43;;;2.70;;
11537;SDS011;50159;49.426;11.182;2022-09-17T09:13:09;4.30;;;3.10;;
11537;SDS011;50159;49.426;11.182;2022-09-17T09:15:51;3.33;;;2.60;;
11537;SDS011;50159;49.426;11.182;2022-09-17T09:18:28;6.07;;;2.90;;
11537;SDS011;50159;49.426;11.182;2022-09-17T09:26:52;4.07;;;2.60;;
11537;SDS011;50159;49.426;11.182;2022-09-17T09:35:43;6.17;;;3.03;;
11537;SDS011;50159;49.426;11.182;2022-09-17T09:41:09;2.70;;;2.43;;
11537;SDS011;50159;49.426;11.182;2022-09-17T09:43:54;4.30;;;2.53;;
11537;SDS011;50159;49.426;11.182;2022-09-17T09:46:44;3.80;;;2.87;;
11537;SDS011;50159;49.426;11.182;2022-09-17T09:55:46;5.27;;;2.70;;
11537;SDS011;50159;49.426;11.182;2022-09-17T09:58:56;2.60;;;2.23;;
11537;SDS011;50159;49.426;11.182;2022-09-17T10:01:26;3.07;;;2.33;;
11537;SDS011;50159;49.426;11.182;2022-09-17T10:03:55;5.27;;;2.70;;
11537;SDS011;50159;49.426;11.182;2022-09-17T10:06:23;8.40;;;2.70;;
11537;SDS011;50159;49.426;11.182;2022-09-17T10:11:23;4.87;;;2.80;;
11537;SDS011;50159;49.426;11.182;2022-09-17T10:14:13;9.93;;;2.57;;
11537;SDS011;50159;49.426;11.182;2022-09-17T10:17:09;4.93;;;2.73;;
11537;SDS011;50159;49.426;11.182;2022-09-17T10:19:41;3.97;;;2.67;;
11537;SDS011;50159;49.426;11.182;2022-09-17T10:22:22;6.20;;;3.23;;
11537;SDS011;50159;49.426;11.182;2022-09-17T10:24:55;9.90;;;2.70;;
11537;SDS011;50159;49.426;11.182;2022-09-17T10:27:25;5.33;;;3.10;;
11537;SDS011;50159;49.426;11.182;2022-09-17T10:30:00;9.23;;;2.40;;
11537;SDS011;50159;49.426;11.182;2022-09-17T10:32:33;5.27;;;2.40;;
11537;SDS011;50159;49.426;11.182;2022-09-17T10:35:02;7.53;;;2.50;;
11537;SDS011;50159;49.426;11.182;2022-09-17T10:37:50;4.73;;;2.30;;
11537;SDS011;50159;49.426;11.182;2022-09-17T10:42:48;6.73;;;2.63;;
11537;SDS011;50159;49.426;11.182;2022-09-17T10:45:42;5.93;;;2.70;;
11537;SDS011;50159;49.426;11.182;2022-09-17T10:48:21;4.90;;;2.90;;
11537;SDS011;50159;49.426;11.182;2022-09-17T10:50:49;6.33;;;2.40;;
11537;SDS011;50159;49.426;11.182;2022-09-17T10:53:20;5.40;;;2.40;;
11537;SDS011;50159;49.426;11.182;2022-09-17T11:08:19;7.53;;;3.13;;
11537;SDS011;50159;49.426;11.182;2022-09-17T11:11:10;2.13;;;1.90;;
11537;SDS011;50159;49.426;11.182;2022-09-17T11:14:04;3.20;;;2.30;;
11537;SDS011;50159;49.426;11.182;2022-09-17T11:16:57;5.73;;;3.00;;
11537;SDS011;50159;49.426;11.182;2022-09-17T11:20:04;10.37;;;2.30;;
11537;SDS011;50159;49.426;11.182;2022-09-17T11:25:46;3.03;;;2.43;;
11537;SDS011;50159;49.426;11.182;2022-09-17T11:28:47;2.13;;;2.03;;
11537;SDS011;50159;49.426;11.182;2022-09-17T11:31:35;4.40;;;2.90;;
11537;SDS011;50159;49.426;11.182;2022-09-17T11:34:41;4.30;;;2.80;;
11537;SDS011;50159;49.426;11.182;2022-09-17T11:37:25;3.80;;;2.37;;
11537;SDS011;50159;49.426;11.182;2022-09-17T11:40:43;4.70;;;2.63;;
11537;SDS011;50159;49.426;11.182;2022-09-17T11:43:34;2.80;;;1.90;;
11537;SDS011;50159;49.426;11.182;2022-09-17T11:46:17;3.77;;;2.50;;
11537;SDS011;50159;49.426;11.182;2022-09-17T11:49:08;1.97;;;1.87;;
11537;SDS011;50159;49.426;11.182;2022-09-17T11:51:40;2.40;;;2.03;;
11537;SDS011;50159;49.426;11.182;2022-09-17T11:56:45;2.23;;;1.90;;
11537;SDS011;50159;49.426;11.182;2022-09-17T11:59:29;4.27;;;2.27;;
11537;SDS011;50159;49.426;11.182;2022-09-17T12:02:41;2.23;;;1.97;;
11537;SDS011;50159;49.426;11.182;2022-09-17T12:05:33;4.27;;;2.17;;
11537;SDS011;50159;49.426;11.182;2022-09-17T12:08:26;6.03;;;1.93;;
11537;SDS011;50159;49.426;11.182;2022-09-17T12:11:12;2.90;;;2.23;;
11537;SDS011;50159;49.426;11.182;2022-09-17T12:13:49;2.40;;;1.97;;
11537;SDS011;50159;49.426;11.182;2022-09-17T12:21:48;2.33;;;1.93;;
11537;SDS011;50159;49.426;11.182;2022-09-17T12:24:28;3.30;;;2.07;;
11537;SDS011;50159;49.426;11.182;2022-09-17T12:27:02;4.13;;;2.17;;
11537;SDS011;50159;49.426;11.182;2022-09-17T12:32:33;5.33;;;2.27;;
11537;SDS011;50159;49.426;11.182;2022-09-17T12:41:40;4.77;;;2.20;;
11537;SDS011;50159;49.426;11.182;2022-09-17T12:47:40;4.47;;;2.47;;
11537;SDS011;50159;49.426;11.182;2022-09-17T12:50:17;3.60;;;2.53;;
11537;SDS011;50159;49.426;11.182;2022-09-17T12:56:09;3.07;;;2.63;;
11537;SDS011;50159;49.426;11.182;2022-09-17T13:01:43;2.57;;;2.37;;
11537;SDS011;50159;49.426;11.182;2022-09-17T13:08:20;2.00;;;1.90;;
11537;SDS011;50159;49.426;11.182;2022-09-17T13:11:20;5.03;;;2.13;;
11537;SDS011;50159;49.426;11.182;2022-09-17T13:17:10;6.37;;;2.40;;
11537;SDS011;50159;49.426;11.182;2022-09-17T13:20:12;3.33;;;2.13;;
11537;SDS011;50159;49.426;11.182;2022-09-17T13:22:44;2.70;;;2.50;;
11537;SDS011;50159;49.426;11.182;2022-09-17T13:25:14;3.10;;;2.27;;
11537;SDS011;50159;49.426;11.182;2022-09-17T13:27:44;5.57;;;2.27;;
11537;SDS011;50159;49.426;11.182;2022-09-17T13:30:14;2.83;;;2.07;;
11537;SDS011;50159;49.426;11.182;2022-09-17T13:32:44;1.90;;;1.80;;
11537;SDS011;50159;49.426;11.182;2022-09-17T13:37:44;2.43;;;1.83;;
11537;SDS011;50159;49.426;11.182;2022-09-17T13:42:56;2.00;;;1.90;;
11537;SDS011;50159;49.426;11.182;2022-09-17T13:45:34;3.63;;;1.53;;
11537;SDS011;50159;49.426;11.182;2022-09-17T13:48:30;1.50;;;1.50;;
11537;SDS011;50159;49.426;11.182;2022-09-17T13:53:55;2.30;;;1.40;;
11537;SDS011;50159;49.426;11.182;2022-09-17T13:56:36;1.30;;;1.30;;
11537;SDS011;50159;49.426;11.182;2022-09-17T13:59:16;1.03;;;1.03;;
11537;SDS011;50159;49.426;11.182;2022-09-17T14:20:54;1.20;;;1.20;;
11537;SDS011;50159;49.426;11.182;2022-09-17T14:23:42;1.67;;;1.57;;
11537;SDS011;50159;49.426;11.182;2022-09-17T14:26:24;1.20;;;1.10;;
11537;SDS011;50159;49.426;11.182;2022-09-17T14:29:14;0.80;;;0.80;;
11537;SDS011;50159;49.426;11.182;2022-09-17T14:31:55;0.90;;;0.90;;
11537;SDS011;50159;49.426;11.182;2022-09-17T14:34:23;0.93;;;0.93;;
11537;SDS011;50159;49.426;11.182;2022-09-17T14:36:53;1.03;;;0.90;;
11537;SDS011;50159;49.426;11.182;2022-09-17T14:39:22;1.43;;;1.30;;
11537;SDS011;50159;49.426;11.182;2022-09-17T14:42:00;1.10;;;1.00;;
11537;SDS011;50159;49.426;11.182;2022-09-17T14:44:29;1.00;;;1.00;;
11537;SDS011;50159;49.426;11.182;2022-09-17T14:47:01;1.20;;;1.20;;
11537;SDS011;50159;49.426;11.182;2022-09-17T14:49:34;1.67;;;1.53;;
11537;SDS011;50159;49.426;11.182;2022-09-17T14:52:22;1.10;;;1.10;;
11537;SDS011;50159;49.426;11.182;2022-09-17T14:57:53;1.37;;;1.37;;
11537;SDS011;50159;49.426;11.182;2022-09-17T15:00:24;1.37;;;1.37;;
11537;SDS011;50159;49.426;11.182;2022-09-17T15:02:59;1.40;;;1.40;;
11537;SDS011;50159;49.426;11.182;2022-09-17T15:05:35;1.90;;;1.70;;
11537;SDS011;50159;49.426;11.182;2022-09-17T15:10:43;2.30;;;1.70;;
11537;SDS011;50159;49.426;11.182;2022-09-17T15:13:22;1.50;;;1.50;;
11537;SDS011;50159;49.426;11.182;2022-09-17T15:16:03;1.83;;;1.50;;
11537;SDS011;50159;49.426;11.182;2022-09-17T15:18:39;1.37;;;1.33;;
11537;SDS011;50159;49.426;11.182;2022-09-17T15:21:17;3.33;;;1.80;;
11537;SDS011;50159;49.426;11.182;2022-09-17T15:26:54;1.90;;;1.60;;
11537;SDS011;50159;49.426;11.182;2022-09-17T15:29:27;1.93;;;1.40;;
11537;SDS011;50159;49.426;11.182;2022-09-17T15:31:58;1.80;;;1.30;;
11537;SDS011;50159;49.426;11.182;2022-09-17T15:34:28;2.73;;;1.53;;
11537;SDS011;50159;49.426;11.182;2022-09-17T15:37:01;2.13;;;1.47;;
11537;SDS011;50159;49.426;11.182;2022-09-17T15:39:46;1.77;;;1.67;;
11537;SDS011;50159;49.426;11.182;2022-09-17T15:42:26;1.63;;;1.43;;
11537;SDS011;50159;49.426;11.182;2022-09-17T15:45:30;1.50;;;1.40;;
11537;SDS011;50159;49.426;11.182;2022-09-17T15:47:57;3.40;;;1.30;;
11537;SDS011;50159;49.426;11.182;2022-09-17T15:50:26;1.63;;;1.53;;
11537;SDS011;50159;49.426;11.182;2022-09-17T15:55:35;1.47;;;1.37;;
11537;SDS011;50159;49.426;11.182;2022-09-17T16:01:30;2.53;;;1.43;;
11537;SDS011;50159;49.426;11.182;2022-09-17T16:08:55;1.73;;;1.63;;
11537;SDS011;50159;49.426;11.182;2022-09-17T16:11:25;1.40;;;1.30;;
11537;SDS011;50159;49.426;11.182;2022-09-17T16:13:55;4.03;;;1.40;;
11537;SDS011;50159;49.426;11.182;2022-09-17T16:16:31;2.43;;;1.50;;
11537;SDS011;50159;49.426;11.182;2022-09-17T16:19:02;1.63;;;1.53;;
11537;SDS011;50159;49.426;11.182;2022-09-17T16:21:31;2.53;;;1.70;;
11537;SDS011;50159;49.426;11.182;2022-09-17T16:23:58;2.07;;;1.30;;
11537;SDS011;50159;49.426;11.182;2022-09-17T16:26:28;1.50;;;1.40;;
11537;SDS011;50159;49.426;11.182;2022-09-17T16:29:01;5.57;;;1.80;;
11537;SDS011;50159;49.426;11.182;2022-09-17T16:31:38;2.03;;;1.33;;
11537;SDS011;50159;49.426;11.182;2022-09-17T16:34:04;1.53;;;1.43;;
11537;SDS011;50159;49.426;11.182;2022-09-17T16:36:31;1.60;;;1.50;;
11537;SDS011;50159;49.426;11.182;2022-09-17T16:38:58;3.60;;;1.50;;
11537;SDS011;50159;49.426;11.182;2022-09-17T16:41:26;3.17;;;1.67;;
11537;SDS011;50159;49.426;11.182;2022-09-17T16:43:52;1.57;;;1.47;;
11537;SDS011;50159;49.426;11.182;2022-09-17T16:46:19;2.50;;;1.53;;
11537;SDS011;50159;49.426;11.182;2022-09-17T16:48:49;1.70;;;1.60;;
11537;SDS011;50159;49.426;11.182;2022-09-17T16:51:16;2.77;;;1.60;;
11537;SDS011;50159;49.426;11.182;2022-09-17T16:53:43;2.20;;;1.70;;
11537;SDS011;50159;49.426;11.182;2022-09-17T16:56:11;1.87;;;1.77;;
11537;SDS011;50159;49.426;11.182;2022-09-17T16:58:40;2.00;;;1.90;;
11537;SDS011;50159;49.426;11.182;2022-09-17T17:01:08;1.93;;;1.83;;
11537;SDS011;50159;49.426;11.182;2022-09-17T17:03:37;7.17;;;3.10;;
11537;SDS011;50159;49.426;11.182;2022-09-17T17:06:05;3.23;;;3.03;;
11537;SDS011;50159;49.426;11.182;2022-09-17T17:08:40;2.63;;;2.10;;
11537;SDS011;50159;49.426;11.182;2022-09-17T17:11:06;1.43;;;1.33;;
11537;SDS011;50159;49.426;11.182;2022-09-17T17:13:33;3.20;;;1.33;;
11537;SDS011;50159;49.426;11.182;2022-09-17T17:16:07;1.40;;;1.30;;
11537;SDS011;50159;49.426;11.182;2022-09-17T17:18:37;1.70;;;1.60;;
11537;SDS011;50159;49.426;11.182;2022-09-17T17:21:04;1.30;;;1.30;;
11537;SDS011;50159;49.426;11.182;2022-09-17T17:23:33;1.83;;;1.73;;
11537;SDS011;50159;49.426;11.182;2022-09-17T17:26:00;1.47;;;1.47;;
11537;SDS011;50159;49.426;11.182;2022-09-17T17:28:32;1.77;;;1.77;;
11537;SDS011;50159;49.426;11.182;2022-09-17T17:31:01;1.60;;;1.60;;
11537;SDS011;50159;49.426;11.182;2022-09-17T17:33:29;2.53;;;1.63;;
11537;SDS011;50159;49.426;11.182;2022-09-17T17:36:00;4.57;;;2.03;;
11537;SDS011;50159;49.426;11.182;2022-09-17T17:38:34;2.57;;;1.70;;
11537;SDS011;50159;49.426;11.182;2022-09-17T17:43:29;1.73;;;1.73;;
11537;SDS011;50159;49.426;11.182;2022-09-17T17:45:56;1.60;;;1.60;;
11537;SDS011;50159;49.426;11.182;2022-09-17T17:48:22;1.63;;;1.53;;
11537;SDS011;50159;49.426;11.182;2022-09-17T17:50:49;1.70;;;1.70;;
11537;SDS011;50159;49.426;11.182;2022-09-17T17:53:21;1.83;;;1.60;;
11537;SDS011;50159;49.426;11.182;2022-09-17T17:55:55;2.10;;;2.00;;
11537;SDS011;50159;49.426;11.182;2022-09-17T17:58:27;2.17;;;2.07;;
11537;SDS011;50159;49.426;11.182;2022-09-17T18:00:54;1.57;;;1.50;;
11537;SDS011;50159;49.426;11.182;2022-09-17T18:03:21;3.57;;;1.97;;
11537;SDS011;50159;49.426;11.182;2022-09-17T18:05:53;2.20;;;2.00;;
11537;SDS011;50159;49.426;11.182;2022-09-17T18:08:23;4.10;;;3.80;;
11537;SDS011;50159;49.426;11.182;2022-09-17T18:10:54;4.87;;;4.57;;
11537;SDS011;50159;49.426;11.182;2022-09-17T18:13:29;5.37;;;3.60;;
11537;SDS011;50159;49.426;11.182;2022-09-17T18:15:57;2.77;;;2.40;;
11537;SDS011;50159;49.426;11.182;2022-09-17T18:18:29;2.53;;;2.27;;
11537;SDS011;50159;49.426;11.182;2022-09-17T18:21:10;2.13;;;2.03;;
11537;SDS011;50159;49.426;11.182;2022-09-17T18:23:41;2.20;;;2.10;;
11537;SDS011;50159;49.426;11.182;2022-09-17T18:26:10;3.53;;;3.33;;